sensor_id;sensor_type;location;lat;lon;timestamp;temperature;humidity
39519;DHT22;25200;53.394;10.414;2023-04-24T00:01:55;14.80;67.30
39519;DHT22;25200;53.394;10.414;2023-04-24T00:04:21;14.80;67.30
39519;DHT22;25200;53.394;10.414;2023-04-24T00:06:47;14.70;67.10
39519;DHT22;25200;53.394;10.414;2023-04-24T00:09:19;14.70;67.00
39519;DHT22;25200;53.394;10.414;2023-04-24T00:11:45;14.70;67.10
39519;DHT22;25200;53.394;10.414;2023-04-24T00:14:10;14.70;67.00
39519;DHT22;25200;53.394;10.414;2023-04-24T00:16:36;14.70;67.10
39519;DHT22;25200;53.394;10.414;2023-04-24T00:19:01;14.70;67.00
39519;DHT22;25200;53.394;10.414;2023-04-24T00:21:27;14.70;67.00
39519;DHT22;25200;53.394;10.414;2023-04-24T00:23:53;14.60;66.90
39519;DHT22;25200;53.394;10.414;2023-04-24T00:26:18;14.60;67.00
39519;DHT22;25200;53.394;10.414;2023-04-24T00:28:44;14.60;67.00
39519;DHT22;25200;53.394;10.414;2023-04-24T00:31:10;14.60;67.20
39519;DHT22;25200;53.394;10.414;2023-04-24T00:33:36;14.60;67.20
39519;DHT22;25200;53.394;10.414;2023-04-24T00:36:01;14.50;67.00
39519;DHT22;25200;53.394;10.414;2023-04-24T00:38:27;14.60;67.40
39519;DHT22;25200;53.394;10.414;2023-04-24T00:40:53;14.50;67.40
39519;DHT22;25200;53.394;10.414;2023-04-24T00:43:19;14.50;67.20
39519;DHT22;25200;53.394;10.414;2023-04-24T00:45:45;14.40;67.20
39519;DHT22;25200;53.394;10.414;2023-04-24T00:48:11;14.40;67.30
39519;DHT22;25200;53.394;10.414;2023-04-24T00:50:38;14.40;67.30
39519;DHT22;25200;53.394;10.414;2023-04-24T00:53:04;14.40;67.40
39519;DHT22;25200;53.394;10.414;2023-04-24T00:55:30;14.40;67.40
39519;DHT22;25200;53.394;10.414;2023-04-24T00:57:57;14.40;67.50
39519;DHT22;25200;53.394;10.414;2023-04-24T01:00:22;14.40;67.60
39519;DHT22;25200;53.394;10.414;2023-04-24T01:02:48;14.40;67.50
39519;DHT22;25200;53.394;10.414;2023-04-24T01:05:15;14.40;67.50
39519;DHT22;25200;53.394;10.414;2023-04-24T01:07:44;14.30;67.70
39519;DHT22;25200;53.394;10.414;2023-04-24T01:10:11;14.30;67.50
39519;DHT22;25200;53.394;10.414;2023-04-24T01:12:38;14.30;67.50
39519;DHT22;25200;53.394;10.414;2023-04-24T01:15:05;14.30;67.60
39519;DHT22;25200;53.394;10.414;2023-04-24T01:17:32;14.30;67.80
39519;DHT22;25200;53.394;10.414;2023-04-24T01:19:58;14.30;67.70
39519;DHT22;25200;53.394;10.414;2023-04-24T01:22:25;14.30;67.70
39519;DHT22;25200;53.394;10.414;2023-04-24T01:24:51;14.30;67.70
39519;DHT22;25200;53.394;10.414;2023-04-24T01:27:17;14.30;67.70
39519;DHT22;25200;53.394;10.414;2023-04-24T01:29:43;14.30;67.80
39519;DHT22;25200;53.394;10.414;2023-04-24T01:32:09;14.30;68.10
39519;DHT22;25200;53.394;10.414;2023-04-24T01:34:34;14.20;68.20
39519;DHT22;25200;53.394;10.414;2023-04-24T01:37:00;14.20;68.20
39519;DHT22;25200;53.394;10.414;2023-04-24T01:39:26;14.20;68.30
39519;DHT22;25200;53.394;10.414;2023-04-24T01:41:54;14.10;68.20
39519;DHT22;25200;53.394;10.414;2023-04-24T01:44:20;14.20;68.50
39519;DHT22;25200;53.394;10.414;2023-04-24T01:46:46;14.10;68.50
39519;DHT22;25200;53.394;10.414;2023-04-24T01:49:12;14.00;68.30
39519;DHT22;25200;53.394;10.414;2023-04-24T01:51:38;14.00;68.50
39519;DHT22;25200;53.394;10.414;2023-04-24T01:54:04;14.00;68.40
39519;DHT22;25200;53.394;10.414;2023-04-24T01:56:33;14.00;68.40
39519;DHT22;25200;53.394;10.414;2023-04-24T01:59:00;13.90;68.40
39519;DHT22;25200;53.394;10.414;2023-04-24T02:01:34;13.90;68.60
39519;DHT22;25200;53.394;10.414;2023-04-24T02:04:01;13.80;68.60
39519;DHT22;25200;53.394;10.414;2023-04-24T02:06:27;13.80;68.50
39519;DHT22;25200;53.394;10.414;2023-04-24T02:08:53;13.80;68.50
39519;DHT22;25200;53.394;10.414;2023-04-24T02:11:18;13.80;68.90
39519;DHT22;25200;53.394;10.414;2023-04-24T02:13:44;13.80;69.10
39519;DHT22;25200;53.394;10.414;2023-04-24T02:16:10;13.80;69.10
39519;DHT22;25200;53.394;10.414;2023-04-24T02:18:35;13.70;68.70
39519;DHT22;25200;53.394;10.414;2023-04-24T02:21:01;13.70;69.20
39519;DHT22;25200;53.394;10.414;2023-04-24T02:23:27;13.70;69.20
39519;DHT22;25200;53.394;10.414;2023-04-24T02:25:53;13.60;69.00
39519;DHT22;25200;53.394;10.414;2023-04-24T02:28:19;13.60;69.20
39519;DHT22;25200;53.394;10.414;2023-04-24T02:30:45;13.60;69.20
39519;DHT22;25200;53.394;10.414;2023-04-24T02:33:11;13.60;69.40
39519;DHT22;25200;53.394;10.414;2023-04-24T02:35:37;13.50;69.20
39519;DHT22;25200;53.394;10.414;2023-04-24T02:38:03;13.50;69.10
39519;DHT22;25200;53.394;10.414;2023-04-24T02:40:29;13.50;69.10
39519;DHT22;25200;53.394;10.414;2023-04-24T02:42:55;13.50;69.00
39519;DHT22;25200;53.394;10.414;2023-04-24T02:45:21;13.40;68.90
39519;DHT22;25200;53.394;10.414;2023-04-24T02:47:47;13.40;69.00
39519;DHT22;25200;53.394;10.414;2023-04-24T02:50:12;13.40;68.90
39519;DHT22;25200;53.394;10.414;2023-04-24T02:52:38;13.40;68.90
39519;DHT22;25200;53.394;10.414;2023-04-24T02:55:05;13.30;68.80
39519;DHT22;25200;53.394;10.414;2023-04-24T02:57:30;13.30;68.80
39519;DHT22;25200;53.394;10.414;2023-04-24T02:59:56;13.30;69.00
39519;DHT22;25200;53.394;10.414;2023-04-24T03:02:22;13.30;69.40
39519;DHT22;25200;53.394;10.414;2023-04-24T03:04:47;13.30;68.90
39519;DHT22;25200;53.394;10.414;2023-04-24T03:07:13;13.30;69.00
39519;DHT22;25200;53.394;10.414;2023-04-24T03:09:40;13.30;69.00
39519;DHT22;25200;53.394;10.414;2023-04-24T03:12:06;13.30;69.10
39519;DHT22;25200;53.394;10.414;2023-04-24T03:14:31;13.20;69.60
39519;DHT22;25200;53.394;10.414;2023-04-24T03:16:57;13.20;69.20
39519;DHT22;25200;53.394;10.414;2023-04-24T03:19:23;13.20;69.10
39519;DHT22;25200;53.394;10.414;2023-04-24T03:21:49;13.20;69.30
39519;DHT22;25200;53.394;10.414;2023-04-24T03:24:15;13.10;69.20
39519;DHT22;25200;53.394;10.414;2023-04-24T03:26:40;13.10;69.40
39519;DHT22;25200;53.394;10.414;2023-04-24T03:29:06;13.10;69.60
39519;DHT22;25200;53.394;10.414;2023-04-24T03:31:31;13.10;69.80
39519;DHT22;25200;53.394;10.414;2023-04-24T03:33:57;13.10;69.20
39519;DHT22;25200;53.394;10.414;2023-04-24T03:36:23;13.00;70.00
39519;DHT22;25200;53.394;10.414;2023-04-24T03:38:48;13.00;69.60
39519;DHT22;25200;53.394;10.414;2023-04-24T03:41:14;13.00;69.50
39519;DHT22;25200;53.394;10.414;2023-04-24T03:43:40;13.00;69.50
39519;DHT22;25200;53.394;10.414;2023-04-24T03:46:05;12.90;69.50
39519;DHT22;25200;53.394;10.414;2023-04-24T03:48:32;12.90;69.50
39519;DHT22;25200;53.394;10.414;2023-04-24T03:50:57;12.90;69.80
39519;DHT22;25200;53.394;10.414;2023-04-24T03:53:23;12.90;69.70
39519;DHT22;25200;53.394;10.414;2023-04-24T03:55:49;12.80;69.70
39519;DHT22;25200;53.394;10.414;2023-04-24T03:58:14;12.80;69.40
39519;DHT22;25200;53.394;10.414;2023-04-24T04:00:40;12.80;69.60
39519;DHT22;25200;53.394;10.414;2023-04-24T04:03:06;12.80;69.60
39519;DHT22;25200;53.394;10.414;2023-04-24T04:05:32;12.70;69.40
39519;DHT22;25200;53.394;10.414;2023-04-24T04:07:57;12.70;69.50
39519;DHT22;25200;53.394;10.414;2023-04-24T04:10:23;12.70;69.30
39519;DHT22;25200;53.394;10.414;2023-04-24T04:12:49;12.60;69.30
39519;DHT22;25200;53.394;10.414;2023-04-24T04:15:14;12.60;69.60
39519;DHT22;25200;53.394;10.414;2023-04-24T04:17:40;12.60;69.40
39519;DHT22;25200;53.394;10.414;2023-04-24T04:20:06;12.60;69.40
39519;DHT22;25200;53.394;10.414;2023-04-24T04:22:35;12.50;69.40
39519;DHT22;25200;53.394;10.414;2023-04-24T04:25:01;12.50;69.40
39519;DHT22;25200;53.394;10.414;2023-04-24T04:27:27;12.50;69.60
39519;DHT22;25200;53.394;10.414;2023-04-24T04:29:54;12.50;69.50
39519;DHT22;25200;53.394;10.414;2023-04-24T04:32:22;12.40;69.30
39519;DHT22;25200;53.394;10.414;2023-04-24T04:34:47;12.40;69.30
39519;DHT22;25200;53.394;10.414;2023-04-24T04:37:14;12.40;69.20
39519;DHT22;25200;53.394;10.414;2023-04-24T04:39:40;12.40;69.50
39519;DHT22;25200;53.394;10.414;2023-04-24T04:42:06;12.30;69.20
39519;DHT22;25200;53.394;10.414;2023-04-24T04:44:32;12.30;69.30
39519;DHT22;25200;53.394;10.414;2023-04-24T04:46:58;12.30;69.20
39519;DHT22;25200;53.394;10.414;2023-04-24T04:49:24;12.30;69.20
39519;DHT22;25200;53.394;10.414;2023-04-24T04:51:50;12.30;69.20
39519;DHT22;25200;53.394;10.414;2023-04-24T04:54:17;12.30;69.30
39519;DHT22;25200;53.394;10.414;2023-04-24T04:56:43;12.30;69.30
39519;DHT22;25200;53.394;10.414;2023-04-24T04:59:08;12.30;69.10
39519;DHT22;25200;53.394;10.414;2023-04-24T05:01:34;12.20;69.30
39519;DHT22;25200;53.394;10.414;2023-04-24T05:04:00;12.20;69.20
39519;DHT22;25200;53.394;10.414;2023-04-24T05:06:25;12.20;69.30
39519;DHT22;25200;53.394;10.414;2023-04-24T05:08:51;12.20;69.30
39519;DHT22;25200;53.394;10.414;2023-04-24T05:11:21;12.20;69.40
39519;DHT22;25200;53.394;10.414;2023-04-24T05:13:46;12.20;69.40
39519;DHT22;25200;53.394;10.414;2023-04-24T05:16:12;12.20;69.20
39519;DHT22;25200;53.394;10.414;2023-04-24T05:18:38;12.20;69.40
39519;DHT22;25200;53.394;10.414;2023-04-24T05:21:03;12.20;69.40
39519;DHT22;25200;53.394;10.414;2023-04-24T05:23:29;12.20;69.40
39519;DHT22;25200;53.394;10.414;2023-04-24T05:25:55;12.20;69.90
39519;DHT22;25200;53.394;10.414;2023-04-24T05:28:20;12.30;69.40
39519;DHT22;25200;53.394;10.414;2023-04-24T05:30:46;12.30;69.40
39519;DHT22;25200;53.394;10.414;2023-04-24T05:33:12;12.30;69.20
39519;DHT22;25200;53.394;10.414;2023-04-24T05:35:40;12.30;69.40
39519;DHT22;25200;53.394;10.414;2023-04-24T05:38:11;12.30;69.40
39519;DHT22;25200;53.394;10.414;2023-04-24T05:40:37;12.30;69.30
39519;DHT22;25200;53.394;10.414;2023-04-24T05:43:02;12.30;69.20
39519;DHT22;25200;53.394;10.414;2023-04-24T05:45:28;12.30;69.20
39519;DHT22;25200;53.394;10.414;2023-04-24T05:47:54;12.30;69.40
39519;DHT22;25200;53.394;10.414;2023-04-24T05:50:20;12.40;69.40
39519;DHT22;25200;53.394;10.414;2023-04-24T05:52:46;12.40;69.40
39519;DHT22;25200;53.394;10.414;2023-04-24T05:55:11;12.40;69.50
39519;DHT22;25200;53.394;10.414;2023-04-24T05:57:37;12.40;69.40
39519;DHT22;25200;53.394;10.414;2023-04-24T06:00:04;12.50;69.20
39519;DHT22;25200;53.394;10.414;2023-04-24T06:02:30;12.50;69.30
39519;DHT22;25200;53.394;10.414;2023-04-24T06:04:58;12.50;69.70
39519;DHT22;25200;53.394;10.414;2023-04-24T06:07:25;12.50;69.60
39519;DHT22;25200;53.394;10.414;2023-04-24T06:09:53;12.50;69.40
39519;DHT22;25200;53.394;10.414;2023-04-24T06:12:19;12.60;69.60
39519;DHT22;25200;53.394;10.414;2023-04-24T06:14:45;12.60;69.40
39519;DHT22;25200;53.394;10.414;2023-04-24T06:17:11;12.60;69.30
39519;DHT22;25200;53.394;10.414;2023-04-24T06:19:36;12.70;69.50
39519;DHT22;25200;53.394;10.414;2023-04-24T06:22:02;12.70;69.20
39519;DHT22;25200;53.394;10.414;2023-04-24T06:24:28;12.70;69.90
39519;DHT22;25200;53.394;10.414;2023-04-24T06:26:54;12.70;69.10
39519;DHT22;25200;53.394;10.414;2023-04-24T06:29:22;12.80;69.30
39519;DHT22;25200;53.394;10.414;2023-04-24T06:31:47;12.80;69.10
39519;DHT22;25200;53.394;10.414;2023-04-24T06:34:13;12.80;69.00
39519;DHT22;25200;53.394;10.414;2023-04-24T06:36:39;12.90;68.90
39519;DHT22;25200;53.394;10.414;2023-04-24T06:39:05;12.90;69.00
39519;DHT22;25200;53.394;10.414;2023-04-24T06:41:30;13.00;69.20
39519;DHT22;25200;53.394;10.414;2023-04-24T06:43:56;13.00;69.40
39519;DHT22;25200;53.394;10.414;2023-04-24T06:46:25;13.00;68.60
39519;DHT22;25200;53.394;10.414;2023-04-24T06:48:52;13.10;68.70
39519;DHT22;25200;53.394;10.414;2023-04-24T06:51:24;13.10;68.60
39519;DHT22;25200;53.394;10.414;2023-04-24T06:53:52;13.10;68.50
39519;DHT22;25200;53.394;10.414;2023-04-24T06:56:18;13.20;68.50
39519;DHT22;25200;53.394;10.414;2023-04-24T06:58:43;13.20;68.40
39519;DHT22;25200;53.394;10.414;2023-04-24T07:01:10;13.30;68.60
39519;DHT22;25200;53.394;10.414;2023-04-24T07:03:36;13.30;68.50
39519;DHT22;25200;53.394;10.414;2023-04-24T07:06:02;13.40;68.40
39519;DHT22;25200;53.394;10.414;2023-04-24T07:08:29;13.40;68.30
39519;DHT22;25200;53.394;10.414;2023-04-24T07:10:56;13.40;68.30
39519;DHT22;25200;53.394;10.414;2023-04-24T07:13:22;13.50;68.70
39519;DHT22;25200;53.394;10.414;2023-04-24T07:15:48;13.60;68.90
39519;DHT22;25200;53.394;10.414;2023-04-24T07:18:16;13.60;68.70
39519;DHT22;25200;53.394;10.414;2023-04-24T07:20:42;13.70;68.40
39519;DHT22;25200;53.394;10.414;2023-04-24T07:23:07;13.70;68.60
39519;DHT22;25200;53.394;10.414;2023-04-24T07:25:33;13.80;68.50
39519;DHT22;25200;53.394;10.414;2023-04-24T07:27:59;13.80;68.60
39519;DHT22;25200;53.394;10.414;2023-04-24T07:30:24;13.90;68.40
39519;DHT22;25200;53.394;10.414;2023-04-24T07:32:50;14.00;68.00
39519;DHT22;25200;53.394;10.414;2023-04-24T07:35:16;13.90;67.80
39519;DHT22;25200;53.394;10.414;2023-04-24T07:37:41;14.00;67.70
39519;DHT22;25200;53.394;10.414;2023-04-24T07:40:12;14.00;68.00
39519;DHT22;25200;53.394;10.414;2023-04-24T07:42:38;14.10;68.10
39519;DHT22;25200;53.394;10.414;2023-04-24T07:45:04;14.20;68.50
39519;DHT22;25200;53.394;10.414;2023-04-24T07:47:30;14.30;68.20
39519;DHT22;25200;53.394;10.414;2023-04-24T07:49:56;14.40;68.20
39519;DHT22;25200;53.394;10.414;2023-04-24T07:52:23;14.50;68.00
39519;DHT22;25200;53.394;10.414;2023-04-24T07:54:49;14.50;67.60
39519;DHT22;25200;53.394;10.414;2023-04-24T07:57:15;14.60;67.50
39519;DHT22;25200;53.394;10.414;2023-04-24T07:59:41;14.60;67.60
39519;DHT22;25200;53.394;10.414;2023-04-24T08:02:07;14.70;67.70
39519;DHT22;25200;53.394;10.414;2023-04-24T08:04:33;14.80;67.90
39519;DHT22;25200;53.394;10.414;2023-04-24T08:06:58;14.90;67.40
39519;DHT22;25200;53.394;10.414;2023-04-24T08:09:24;15.00;67.40
39519;DHT22;25200;53.394;10.414;2023-04-24T08:11:50;15.10;67.30
39519;DHT22;25200;53.394;10.414;2023-04-24T08:14:16;15.20;67.40
39519;DHT22;25200;53.394;10.414;2023-04-24T08:16:41;15.40;68.00
39519;DHT22;25200;53.394;10.414;2023-04-24T08:19:07;15.60;68.20
39519;DHT22;25200;53.394;10.414;2023-04-24T08:21:33;15.80;67.70
39519;DHT22;25200;53.394;10.414;2023-04-24T08:23:59;16.10;67.70
39519;DHT22;25200;53.394;10.414;2023-04-24T08:26:25;16.20;66.50
39519;DHT22;25200;53.394;10.414;2023-04-24T08:28:50;16.10;66.10
39519;DHT22;25200;53.394;10.414;2023-04-24T08:31:16;16.10;66.40
39519;DHT22;25200;53.394;10.414;2023-04-24T08:33:42;16.10;66.20
39519;DHT22;25200;53.394;10.414;2023-04-24T08:36:10;16.10;66.30
39519;DHT22;25200;53.394;10.414;2023-04-24T08:38:36;16.10;66.20
39519;DHT22;25200;53.394;10.414;2023-04-24T08:41:01;16.10;65.80
39519;DHT22;25200;53.394;10.414;2023-04-24T08:43:27;16.20;66.30
39519;DHT22;25200;53.394;10.414;2023-04-24T08:45:55;16.20;66.10
39519;DHT22;25200;53.394;10.414;2023-04-24T08:48:22;16.20;65.30
39519;DHT22;25200;53.394;10.414;2023-04-24T08:50:51;16.20;65.10
39519;DHT22;25200;53.394;10.414;2023-04-24T08:53:18;16.20;65.50
39519;DHT22;25200;53.394;10.414;2023-04-24T08:55:47;16.30;65.70
39519;DHT22;25200;53.394;10.414;2023-04-24T08:58:14;16.50;65.70
39519;DHT22;25200;53.394;10.414;2023-04-24T09:00:40;16.70;66.00
39519;DHT22;25200;53.394;10.414;2023-04-24T09:03:13;17.00;65.90
39519;DHT22;25200;53.394;10.414;2023-04-24T09:05:40;17.30;65.40
39519;DHT22;25200;53.394;10.414;2023-04-24T09:08:11;17.50;65.20
39519;DHT22;25200;53.394;10.414;2023-04-24T09:10:39;17.60;65.00
39519;DHT22;25200;53.394;10.414;2023-04-24T09:13:05;17.80;64.10
39519;DHT22;25200;53.394;10.414;2023-04-24T09:15:31;17.80;63.60
39519;DHT22;25200;53.394;10.414;2023-04-24T09:17:57;17.70;63.80
39519;DHT22;25200;53.394;10.414;2023-04-24T09:20:23;17.70;64.40
39519;DHT22;25200;53.394;10.414;2023-04-24T09:22:54;17.80;64.50
39519;DHT22;25200;53.394;10.414;2023-04-24T09:25:20;17.90;63.60
39519;DHT22;25200;53.394;10.414;2023-04-24T09:27:46;17.80;62.90
39519;DHT22;25200;53.394;10.414;2023-04-24T09:30:12;17.70;62.70
39519;DHT22;25200;53.394;10.414;2023-04-24T09:32:38;17.60;62.70
39519;DHT22;25200;53.394;10.414;2023-04-24T09:35:08;17.40;62.80
39519;DHT22;25200;53.394;10.414;2023-04-24T09:37:39;17.40;63.70
39519;DHT22;25200;53.394;10.414;2023-04-24T09:40:11;17.50;64.30
39519;DHT22;25200;53.394;10.414;2023-04-24T09:42:38;17.50;64.50
39519;DHT22;25200;53.394;10.414;2023-04-24T09:45:08;17.60;63.70
39519;DHT22;25200;53.394;10.414;2023-04-24T09:47:40;17.60;63.90
39519;DHT22;25200;53.394;10.414;2023-04-24T09:50:16;17.60;63.30
39519;DHT22;25200;53.394;10.414;2023-04-24T09:52:56;17.50;63.30
39519;DHT22;25200;53.394;10.414;2023-04-24T09:55:22;17.60;63.90
39519;DHT22;25200;53.394;10.414;2023-04-24T10:00:25;17.80;64.00
39519;DHT22;25200;53.394;10.414;2023-04-24T10:03:03;18.00;62.70
39519;DHT22;25200;53.394;10.414;2023-04-24T10:05:33;18.00;62.10
39519;DHT22;25200;53.394;10.414;2023-04-24T10:08:12;18.20;62.60
39519;DHT22;25200;53.394;10.414;2023-04-24T10:10:43;18.20;62.30
39519;DHT22;25200;53.394;10.414;2023-04-24T10:13:09;18.20;61.60
39519;DHT22;25200;53.394;10.414;2023-04-24T10:15:37;18.10;62.50
39519;DHT22;25200;53.394;10.414;2023-04-24T10:18:04;18.10;62.30
39519;DHT22;25200;53.394;10.414;2023-04-24T10:20:32;18.10;62.10
39519;DHT22;25200;53.394;10.414;2023-04-24T10:22:59;18.20;62.80
39519;DHT22;25200;53.394;10.414;2023-04-24T10:25:35;18.30;62.30
39519;DHT22;25200;53.394;10.414;2023-04-24T10:28:02;18.30;62.20
39519;DHT22;25200;53.394;10.414;2023-04-24T10:30:30;18.40;62.10
39519;DHT22;25200;53.394;10.414;2023-04-24T10:33:00;18.50;62.90
39519;DHT22;25200;53.394;10.414;2023-04-24T10:35:26;18.50;63.00
39519;DHT22;25200;53.394;10.414;2023-04-24T10:37:58;18.60;62.80
39519;DHT22;25200;53.394;10.414;2023-04-24T10:40:33;18.60;62.60
39519;DHT22;25200;53.394;10.414;2023-04-24T10:42:59;18.60;61.80
39519;DHT22;25200;53.394;10.414;2023-04-24T10:45:27;18.60;62.00
39519;DHT22;25200;53.394;10.414;2023-04-24T10:53:16;19.00;62.20
39519;DHT22;25200;53.394;10.414;2023-04-24T10:58:12;18.80;61.60
39519;DHT22;25200;53.394;10.414;2023-04-24T11:00:39;18.60;61.40
39519;DHT22;25200;53.394;10.414;2023-04-24T11:10:54;18.60;62.50
39519;DHT22;25200;53.394;10.414;2023-04-24T11:13:24;18.90;62.50
39519;DHT22;25200;53.394;10.414;2023-04-24T11:16:12;19.10;62.10
39519;DHT22;25200;53.394;10.414;2023-04-24T11:18:39;19.40;62.10
39519;DHT22;25200;53.394;10.414;2023-04-24T11:21:38;19.50;62.00
39519;DHT22;25200;53.394;10.414;2023-04-24T11:29:49;19.10;59.80
39519;DHT22;25200;53.394;10.414;2023-04-24T11:32:28;18.90;60.30
39519;DHT22;25200;53.394;10.414;2023-04-24T11:37:26;18.70;61.10
39519;DHT22;25200;53.394;10.414;2023-04-24T11:39:57;18.60;60.10
39519;DHT22;25200;53.394;10.414;2023-04-24T11:42:23;18.50;60.10
39519;DHT22;25200;53.394;10.414;2023-04-24T11:44:53;18.30;60.60
39519;DHT22;25200;53.394;10.414;2023-04-24T11:47:19;18.20;60.70
39519;DHT22;25200;53.394;10.414;2023-04-24T11:49:45;18.20;61.60
39519;DHT22;25200;53.394;10.414;2023-04-24T11:52:15;18.20;61.70
39519;DHT22;25200;53.394;10.414;2023-04-24T11:54:47;18.40;61.90
39519;DHT22;25200;53.394;10.414;2023-04-24T11:57:14;18.60;61.40
39519;DHT22;25200;53.394;10.414;2023-04-24T11:59:39;18.60;60.70
39519;DHT22;25200;53.394;10.414;2023-04-24T12:02:05;18.60;61.00
39519;DHT22;25200;53.394;10.414;2023-04-24T12:04:41;18.50;61.10
39519;DHT22;25200;53.394;10.414;2023-04-24T12:07:07;18.50;60.70
39519;DHT22;25200;53.394;10.414;2023-04-24T12:09:44;18.50;61.00
39519;DHT22;25200;53.394;10.414;2023-04-24T12:12:11;18.40;60.90
39519;DHT22;25200;53.394;10.414;2023-04-24T12:14:53;18.50;62.10
39519;DHT22;25200;53.394;10.414;2023-04-24T12:17:30;18.60;61.10
39519;DHT22;25200;53.394;10.414;2023-04-24T12:20:03;18.60;60.50
39519;DHT22;25200;53.394;10.414;2023-04-24T12:22:52;18.60;59.90
39519;DHT22;25200;53.394;10.414;2023-04-24T12:25:23;18.50;59.90
39519;DHT22;25200;53.394;10.414;2023-04-24T12:30:38;18.80;60.60
39519;DHT22;25200;53.394;10.414;2023-04-24T12:33:03;19.10;60.10
39519;DHT22;25200;53.394;10.414;2023-04-24T12:35:31;19.30;59.90
39519;DHT22;25200;53.394;10.414;2023-04-24T12:38:13;19.20;59.80
39519;DHT22;25200;53.394;10.414;2023-04-24T12:40:42;19.30;60.00
39519;DHT22;25200;53.394;10.414;2023-04-24T12:43:20;19.30;60.20
39519;DHT22;25200;53.394;10.414;2023-04-24T12:45:47;19.30;59.60
39519;DHT22;25200;53.394;10.414;2023-04-24T12:48:13;19.20;59.60
39519;DHT22;25200;53.394;10.414;2023-04-24T12:50:43;19.10;59.00
39519;DHT22;25200;53.394;10.414;2023-04-24T12:53:09;19.00;59.60
39519;DHT22;25200;53.394;10.414;2023-04-24T12:55:34;18.90;60.00
39519;DHT22;25200;53.394;10.414;2023-04-24T12:58:00;18.90;59.70
39519;DHT22;25200;53.394;10.414;2023-04-24T13:00:28;18.80;59.60
39519;DHT22;25200;53.394;10.414;2023-04-24T13:02:54;18.70;59.70
39519;DHT22;25200;53.394;10.414;2023-04-24T13:05:20;18.70;59.50
39519;DHT22;25200;53.394;10.414;2023-04-24T13:07:45;18.60;59.80
39519;DHT22;25200;53.394;10.414;2023-04-24T13:10:11;18.40;59.30
39519;DHT22;25200;53.394;10.414;2023-04-24T13:12:38;18.30;59.50
39519;DHT22;25200;53.394;10.414;2023-04-24T13:15:05;18.10;59.30
39519;DHT22;25200;53.394;10.414;2023-04-24T13:17:31;18.00;59.40
39519;DHT22;25200;53.394;10.414;2023-04-24T13:19:56;17.80;59.50
39519;DHT22;25200;53.394;10.414;2023-04-24T13:22:22;17.70;59.40
39519;DHT22;25200;53.394;10.414;2023-04-24T13:24:48;17.50;59.20
39519;DHT22;25200;53.394;10.414;2023-04-24T13:27:17;17.40;59.20
39519;DHT22;25200;53.394;10.414;2023-04-24T13:29:43;17.20;59.40
39519;DHT22;25200;53.394;10.414;2023-04-24T13:32:09;17.10;59.30
39519;DHT22;25200;53.394;10.414;2023-04-24T13:34:35;16.90;59.70
39519;DHT22;25200;53.394;10.414;2023-04-24T13:37:02;16.70;60.00
39519;DHT22;25200;53.394;10.414;2023-04-24T13:39:32;16.60;60.10
39519;DHT22;25200;53.394;10.414;2023-04-24T13:41:58;16.50;60.20
39519;DHT22;25200;53.394;10.414;2023-04-24T13:44:23;16.50;60.60
39519;DHT22;25200;53.394;10.414;2023-04-24T13:46:52;16.40;60.70
39519;DHT22;25200;53.394;10.414;2023-04-24T13:49:20;16.40;60.80
39519;DHT22;25200;53.394;10.414;2023-04-24T13:51:46;16.40;60.90
39519;DHT22;25200;53.394;10.414;2023-04-24T13:54:12;16.40;61.00
39519;DHT22;25200;53.394;10.414;2023-04-24T13:56:39;16.40;60.90
39519;DHT22;25200;53.394;10.414;2023-04-24T13:59:05;16.40;61.00
39519;DHT22;25200;53.394;10.414;2023-04-24T14:01:31;16.50;61.30
39519;DHT22;25200;53.394;10.414;2023-04-24T14:03:56;16.60;61.40
39519;DHT22;25200;53.394;10.414;2023-04-24T14:06:23;16.70;62.00
39519;DHT22;25200;53.394;10.414;2023-04-24T14:08:49;16.80;60.90
39519;DHT22;25200;53.394;10.414;2023-04-24T14:11:16;16.80;60.80
39519;DHT22;25200;53.394;10.414;2023-04-24T14:13:42;16.80;60.50
39519;DHT22;25200;53.394;10.414;2023-04-24T14:16:09;16.80;60.10
39519;DHT22;25200;53.394;10.414;2023-04-24T14:18:35;16.70;60.00
39519;DHT22;25200;53.394;10.414;2023-04-24T14:21:02;16.60;60.00
39519;DHT22;25200;53.394;10.414;2023-04-24T14:23:27;16.60;60.00
39519;DHT22;25200;53.394;10.414;2023-04-24T14:25:53;16.50;60.20
39519;DHT22;25200;53.394;10.414;2023-04-24T14:28:19;16.40;60.00
39519;DHT22;25200;53.394;10.414;2023-04-24T14:30:46;16.30;60.00
39519;DHT22;25200;53.394;10.414;2023-04-24T14:33:12;16.30;60.30
39519;DHT22;25200;53.394;10.414;2023-04-24T14:35:39;16.20;60.30
39519;DHT22;25200;53.394;10.414;2023-04-24T14:38:05;16.10;60.30
39519;DHT22;25200;53.394;10.414;2023-04-24T14:40:31;16.10;60.30
39519;DHT22;25200;53.394;10.414;2023-04-24T14:42:58;16.00;60.30
39519;DHT22;25200;53.394;10.414;2023-04-24T14:45:24;15.90;60.40
39519;DHT22;25200;53.394;10.414;2023-04-24T14:47:50;15.90;60.70
39519;DHT22;25200;53.394;10.414;2023-04-24T14:50:16;15.80;60.70
39519;DHT22;25200;53.394;10.414;2023-04-24T14:52:42;15.80;60.70
39519;DHT22;25200;53.394;10.414;2023-04-24T14:55:08;15.80;60.70
39519;DHT22;25200;53.394;10.414;2023-04-24T14:57:34;15.70;60.80
39519;DHT22;25200;53.394;10.414;2023-04-24T15:00:01;15.70;60.90
39519;DHT22;25200;53.394;10.414;2023-04-24T15:02:27;15.70;61.00
39519;DHT22;25200;53.394;10.414;2023-04-24T15:04:52;15.60;61.10
39519;DHT22;25200;53.394;10.414;2023-04-24T15:07:18;15.60;61.00
39519;DHT22;25200;53.394;10.414;2023-04-24T15:09:44;15.60;61.00
39519;DHT22;25200;53.394;10.414;2023-04-24T15:12:09;15.60;61.10
39519;DHT22;25200;53.394;10.414;2023-04-24T15:14:37;15.50;61.00
39519;DHT22;25200;53.394;10.414;2023-04-24T15:17:03;15.50;61.10
39519;DHT22;25200;53.394;10.414;2023-04-24T15:19:28;15.40;61.10
39519;DHT22;25200;53.394;10.414;2023-04-24T15:21:54;15.40;61.20
39519;DHT22;25200;53.394;10.414;2023-04-24T15:24:20;15.30;61.30
39519;DHT22;25200;53.394;10.414;2023-04-24T15:26:45;15.30;61.40
39519;DHT22;25200;53.394;10.414;2023-04-24T15:29:11;15.30;61.60
39519;DHT22;25200;53.394;10.414;2023-04-24T15:31:37;15.20;61.60
39519;DHT22;25200;53.394;10.414;2023-04-24T15:34:05;15.30;61.80
39519;DHT22;25200;53.394;10.414;2023-04-24T15:36:31;15.20;61.90
39519;DHT22;25200;53.394;10.414;2023-04-24T15:38:57;15.20;62.10
39519;DHT22;25200;53.394;10.414;2023-04-24T15:41:23;15.10;62.00
39519;DHT22;25200;53.394;10.414;2023-04-24T15:43:49;15.10;62.20